sensor_id;sensor_type;location;lat;lon;timestamp;P1;durP1;ratioP1;P2;durP2;ratioP2
16845;SDS011;8539;53.188;8.696;2023-06-04T00:00:14;6.40;;;1.67;;
16845;SDS011;8539;53.188;8.696;2023-06-04T00:02:47;5.00;;;1.58;;
16845;SDS011;8539;53.188;8.696;2023-06-04T00:05:13;3.60;;;1.70;;
16845;SDS011;8539;53.188;8.696;2023-06-04T00:07:39;3.67;;;1.83;;
16845;SDS011;8539;53.188;8.696;2023-06-04T00:10:12;8.13;;;2.22;;
16845;SDS011;8539;53.188;8.696;2023-06-04T00:12:38;8.68;;;2.00;;
16845;SDS011;8539;53.188;8.696;2023-06-04T00:15:05;5.00;;;2.50;;
16845;SDS011;8539;53.188;8.696;2023-06-04T00:17:31;6.40;;;2.10;;
16845;SDS011;8539;53.188;8.696;2023-06-04T00:19:58;5.30;;;2.20;;
16845;SDS011;8539;53.188;8.696;2023-06-04T00:22:24;10.55;;;2.20;;
16845;SDS011;8539;53.188;8.696;2023-06-04T00:24:51;3.30;;;2.22;;
16845;SDS011;8539;53.188;8.696;2023-06-04T00:27:17;5.68;;;2.13;;
16845;SDS011;8539;53.188;8.696;2023-06-04T00:29:43;5.35;;;2.10;;
16845;SDS011;8539;53.188;8.696;2023-06-04T00:32:09;4.25;;;2.08;;
16845;SDS011;8539;53.188;8.696;2023-06-04T00:34:35;2.97;;;2.00;;
16845;SDS011;8539;53.188;8.696;2023-06-04T00:37:01;4.93;;;2.20;;
16845;SDS011;8539;53.188;8.696;2023-06-04T00:39:27;6.40;;;2.17;;
16845;SDS011;8539;53.188;8.696;2023-06-04T00:41:54;6.55;;;2.65;;
16845;SDS011;8539;53.188;8.696;2023-06-04T00:44:21;5.25;;;2.47;;
16845;SDS011;8539;53.188;8.696;2023-06-04T00:46:50;7.07;;;3.42;;
16845;SDS011;8539;53.188;8.696;2023-06-04T00:49:19;3.85;;;2.22;;
16845;SDS011;8539;53.188;8.696;2023-06-04T00:51:45;5.88;;;3.03;;
16845;SDS011;8539;53.188;8.696;2023-06-04T00:54:12;5.55;;;2.65;;
16845;SDS011;8539;53.188;8.696;2023-06-04T00:56:38;3.25;;;2.63;;
16845;SDS011;8539;53.188;8.696;2023-06-04T00:59:05;6.13;;;2.17;;
16845;SDS011;8539;53.188;8.696;2023-06-04T01:04:40;4.90;;;2.80;;
16845;SDS011;8539;53.188;8.696;2023-06-04T01:07:11;4.57;;;2.15;;
16845;SDS011;8539;53.188;8.696;2023-06-04T01:09:41;5.03;;;2.15;;
16845;SDS011;8539;53.188;8.696;2023-06-04T01:12:09;3.88;;;2.00;;
16845;SDS011;8539;53.188;8.696;2023-06-04T01:14:36;4.82;;;2.35;;
16845;SDS011;8539;53.188;8.696;2023-06-04T01:17:17;7.80;;;3.17;;
16845;SDS011;8539;53.188;8.696;2023-06-04T01:25:27;3.40;;;2.20;;
16845;SDS011;8539;53.188;8.696;2023-06-04T01:28:00;2.58;;;2.15;;
16845;SDS011;8539;53.188;8.696;2023-06-04T01:30:32;4.47;;;2.53;;
16845;SDS011;8539;53.188;8.696;2023-06-04T01:33:08;4.32;;;2.42;;
16845;SDS011;8539;53.188;8.696;2023-06-04T01:35:39;5.60;;;2.40;;
16845;SDS011;8539;53.188;8.696;2023-06-04T01:38:05;6.60;;;2.50;;
16845;SDS011;8539;53.188;8.696;2023-06-04T01:40:32;4.93;;;2.63;;
16845;SDS011;8539;53.188;8.696;2023-06-04T01:43:00;6.07;;;2.60;;
16845;SDS011;8539;53.188;8.696;2023-06-04T01:45:27;5.40;;;2.53;;
16845;SDS011;8539;53.188;8.696;2023-06-04T01:47:53;4.13;;;2.72;;
16845;SDS011;8539;53.188;8.696;2023-06-04T01:50:20;4.25;;;2.90;;
16845;SDS011;8539;53.188;8.696;2023-06-04T01:52:46;4.43;;;2.50;;
16845;SDS011;8539;53.188;8.696;2023-06-04T01:55:14;5.35;;;2.50;;
16845;SDS011;8539;53.188;8.696;2023-06-04T01:57:42;4.45;;;2.78;;
16845;SDS011;8539;53.188;8.696;2023-06-04T02:00:20;7.93;;;2.40;;
16845;SDS011;8539;53.188;8.696;2023-06-04T02:03:09;4.55;;;2.30;;
16845;SDS011;8539;53.188;8.696;2023-06-04T02:05:40;4.00;;;2.80;;
16845;SDS011;8539;53.188;8.696;2023-06-04T02:08:10;7.30;;;2.83;;
16845;SDS011;8539;53.188;8.696;2023-06-04T02:10:36;7.13;;;2.92;;
16845;SDS011;8539;53.188;8.696;2023-06-04T02:13:03;3.88;;;3.13;;
16845;SDS011;8539;53.188;8.696;2023-06-04T02:15:29;7.03;;;2.70;;
16845;SDS011;8539;53.188;8.696;2023-06-04T02:17:58;5.30;;;2.97;;
16845;SDS011;8539;53.188;8.696;2023-06-04T02:20:26;5.78;;;2.70;;
16845;SDS011;8539;53.188;8.696;2023-06-04T02:22:53;4.63;;;2.28;;
16845;SDS011;8539;53.188;8.696;2023-06-04T02:25:21;9.85;;;3.13;;
16845;SDS011;8539;53.188;8.696;2023-06-04T02:27:49;4.72;;;2.90;;
16845;SDS011;8539;53.188;8.696;2023-06-04T02:30:15;5.50;;;3.00;;
16845;SDS011;8539;53.188;8.696;2023-06-04T02:32:42;3.13;;;2.67;;
16845;SDS011;8539;53.188;8.696;2023-06-04T02:35:10;4.32;;;2.80;;
16845;SDS011;8539;53.188;8.696;2023-06-04T02:37:36;3.38;;;2.67;;
16845;SDS011;8539;53.188;8.696;2023-06-04T02:40:02;8.95;;;4.38;;
16845;SDS011;8539;53.188;8.696;2023-06-04T02:42:29;6.43;;;2.72;;
16845;SDS011;8539;53.188;8.696;2023-06-04T02:44:55;6.13;;;2.67;;
16845;SDS011;8539;53.188;8.696;2023-06-04T02:47:22;9.07;;;3.25;;
16845;SDS011;8539;53.188;8.696;2023-06-04T02:49:48;6.40;;;3.03;;
16845;SDS011;8539;53.188;8.696;2023-06-04T02:52:15;8.20;;;3.22;;
16845;SDS011;8539;53.188;8.696;2023-06-04T02:54:41;4.68;;;3.05;;
16845;SDS011;8539;53.188;8.696;2023-06-04T02:57:07;4.30;;;2.88;;
16845;SDS011;8539;53.188;8.696;2023-06-04T02:59:34;5.47;;;3.08;;
16845;SDS011;8539;53.188;8.696;2023-06-04T03:02:02;3.80;;;3.22;;
16845;SDS011;8539;53.188;8.696;2023-06-04T03:04:29;7.00;;;2.92;;
16845;SDS011;8539;53.188;8.696;2023-06-04T03:07:02;7.53;;;3.63;;
16845;SDS011;8539;53.188;8.696;2023-06-04T03:09:32;5.95;;;2.83;;
16845;SDS011;8539;53.188;8.696;2023-06-04T03:11:59;3.80;;;3.00;;
16845;SDS011;8539;53.188;8.696;2023-06-04T03:14:29;4.93;;;2.70;;
16845;SDS011;8539;53.188;8.696;2023-06-04T03:17:02;4.32;;;3.05;;
16845;SDS011;8539;53.188;8.696;2023-06-04T03:19:36;5.30;;;3.20;;
16845;SDS011;8539;53.188;8.696;2023-06-04T03:22:04;4.78;;;3.42;;
16845;SDS011;8539;53.188;8.696;2023-06-04T03:24:34;7.30;;;3.47;;
16845;SDS011;8539;53.188;8.696;2023-06-04T03:27:02;6.15;;;2.97;;
16845;SDS011;8539;53.188;8.696;2023-06-04T03:29:29;4.43;;;2.97;;
16845;SDS011;8539;53.188;8.696;2023-06-04T03:31:56;4.93;;;3.05;;
16845;SDS011;8539;53.188;8.696;2023-06-04T03:34:22;7.05;;;3.47;;
16845;SDS011;8539;53.188;8.696;2023-06-04T03:36:52;5.88;;;3.20;;
16845;SDS011;8539;53.188;8.696;2023-06-04T03:39:18;5.20;;;3.40;;
16845;SDS011;8539;53.188;8.696;2023-06-04T03:41:45;7.78;;;3.40;;
16845;SDS011;8539;53.188;8.696;2023-06-04T03:44:14;8.40;;;4.13;;
16845;SDS011;8539;53.188;8.696;2023-06-04T03:46:42;7.95;;;3.35;;
16845;SDS011;8539;53.188;8.696;2023-06-04T03:49:09;13.18;;;3.78;;
16845;SDS011;8539;53.188;8.696;2023-06-04T03:51:38;6.95;;;3.47;;
16845;SDS011;8539;53.188;8.696;2023-06-04T03:54:05;11.50;;;3.58;;
16845;SDS011;8539;53.188;8.696;2023-06-04T03:56:32;11.40;;;4.03;;
16845;SDS011;8539;53.188;8.696;2023-06-04T03:58:58;6.40;;;3.67;;
16845;SDS011;8539;53.188;8.696;2023-06-04T04:01:25;5.13;;;3.78;;
16845;SDS011;8539;53.188;8.696;2023-06-04T04:03:51;6.68;;;3.90;;
16845;SDS011;8539;53.188;8.696;2023-06-04T04:06:18;5.35;;;3.88;;
16845;SDS011;8539;53.188;8.696;2023-06-04T04:08:45;7.03;;;4.00;;
16845;SDS011;8539;53.188;8.696;2023-06-04T04:11:14;7.10;;;3.47;;
16845;SDS011;8539;53.188;8.696;2023-06-04T04:13:42;7.95;;;3.65;;
16845;SDS011;8539;53.188;8.696;2023-06-04T04:16:10;8.90;;;4.70;;
16845;SDS011;8539;53.188;8.696;2023-06-04T04:18:36;5.90;;;3.88;;
16845;SDS011;8539;53.188;8.696;2023-06-04T04:21:02;8.75;;;4.07;;
16845;SDS011;8539;53.188;8.696;2023-06-04T04:23:29;8.55;;;3.72;;
16845;SDS011;8539;53.188;8.696;2023-06-04T04:25:58;6.07;;;3.85;;
16845;SDS011;8539;53.188;8.696;2023-06-04T04:28:27;10.20;;;4.28;;
16845;SDS011;8539;53.188;8.696;2023-06-04T04:30:54;6.97;;;3.97;;
16845;SDS011;8539;53.188;8.696;2023-06-04T04:33:25;6.88;;;4.40;;
16845;SDS011;8539;53.188;8.696;2023-06-04T04:35:51;7.45;;;4.03;;
16845;SDS011;8539;53.188;8.696;2023-06-04T04:38:21;5.57;;;4.05;;
16845;SDS011;8539;53.188;8.696;2023-06-04T04:40:50;6.78;;;4.15;;
16845;SDS011;8539;53.188;8.696;2023-06-04T04:43:30;8.25;;;4.22;;
16845;SDS011;8539;53.188;8.696;2023-06-04T04:45:57;9.95;;;4.55;;
16845;SDS011;8539;53.188;8.696;2023-06-04T04:48:24;12.30;;;4.93;;
16845;SDS011;8539;53.188;8.696;2023-06-04T04:50:51;9.45;;;4.18;;
16845;SDS011;8539;53.188;8.696;2023-06-04T04:53:18;6.30;;;4.25;;
16845;SDS011;8539;53.188;8.696;2023-06-04T04:55:44;9.65;;;4.80;;
16845;SDS011;8539;53.188;8.696;2023-06-04T04:58:10;13.90;;;5.10;;
16845;SDS011;8539;53.188;8.696;2023-06-04T05:00:39;14.30;;;5.38;;
16845;SDS011;8539;53.188;8.696;2023-06-04T05:03:06;11.57;;;4.72;;
16845;SDS011;8539;53.188;8.696;2023-06-04T05:05:35;7.85;;;4.90;;
16845;SDS011;8539;53.188;8.696;2023-06-04T05:08:01;9.50;;;4.47;;
16845;SDS011;8539;53.188;8.696;2023-06-04T05:10:27;7.57;;;4.63;;
16845;SDS011;8539;53.188;8.696;2023-06-04T05:12:54;10.35;;;3.97;;
16845;SDS011;8539;53.188;8.696;2023-06-04T05:15:22;9.38;;;4.72;;
16845;SDS011;8539;53.188;8.696;2023-06-04T05:17:50;8.43;;;4.35;;
16845;SDS011;8539;53.188;8.696;2023-06-04T05:20:17;7.60;;;4.60;;
16845;SDS011;8539;53.188;8.696;2023-06-04T05:22:48;13.10;;;5.05;;
16845;SDS011;8539;53.188;8.696;2023-06-04T05:25:14;11.75;;;4.25;;
16845;SDS011;8539;53.188;8.696;2023-06-04T05:27:40;5.05;;;3.97;;
16845;SDS011;8539;53.188;8.696;2023-06-04T05:30:09;7.80;;;4.03;;
16845;SDS011;8539;53.188;8.696;2023-06-04T05:32:39;9.48;;;4.38;;
16845;SDS011;8539;53.188;8.696;2023-06-04T05:35:06;10.63;;;4.30;;
16845;SDS011;8539;53.188;8.696;2023-06-04T05:37:33;8.50;;;4.10;;
16845;SDS011;8539;53.188;8.696;2023-06-04T05:40:01;9.68;;;4.03;;
16845;SDS011;8539;53.188;8.696;2023-06-04T05:42:31;6.43;;;3.63;;
16845;SDS011;8539;53.188;8.696;2023-06-04T05:45:00;9.35;;;4.28;;
16845;SDS011;8539;53.188;8.696;2023-06-04T05:47:27;6.85;;;3.88;;
16845;SDS011;8539;53.188;8.696;2023-06-04T05:49:56;6.82;;;3.40;;
16845;SDS011;8539;53.188;8.696;2023-06-04T05:52:23;9.93;;;2.90;;
16845;SDS011;8539;53.188;8.696;2023-06-04T05:54:49;5.38;;;2.95;;
16845;SDS011;8539;53.188;8.696;2023-06-04T05:57:15;8.48;;;3.60;;
16845;SDS011;8539;53.188;8.696;2023-06-04T05:59:41;5.20;;;3.05;;
16845;SDS011;8539;53.188;8.696;2023-06-04T06:02:07;7.30;;;3.22;;
16845;SDS011;8539;53.188;8.696;2023-06-04T06:04:34;6.55;;;2.85;;
16845;SDS011;8539;53.188;8.696;2023-06-04T06:07:00;6.22;;;2.63;;
16845;SDS011;8539;53.188;8.696;2023-06-04T06:09:29;3.90;;;2.33;;
16845;SDS011;8539;53.188;8.696;2023-06-04T06:11:56;5.25;;;3.15;;
16845;SDS011;8539;53.188;8.696;2023-06-04T06:14:22;4.97;;;2.40;;
16845;SDS011;8539;53.188;8.696;2023-06-04T06:16:48;8.73;;;2.65;;
16845;SDS011;8539;53.188;8.696;2023-06-04T06:19:15;5.78;;;3.03;;
16845;SDS011;8539;53.188;8.696;2023-06-04T06:21:42;9.40;;;3.00;;
16845;SDS011;8539;53.188;8.696;2023-06-04T06:24:08;5.20;;;2.63;;
16845;SDS011;8539;53.188;8.696;2023-06-04T06:26:34;7.95;;;3.00;;
16845;SDS011;8539;53.188;8.696;2023-06-04T06:29:00;6.90;;;3.08;;
16845;SDS011;8539;53.188;8.696;2023-06-04T06:31:27;6.28;;;2.88;;
16845;SDS011;8539;53.188;8.696;2023-06-04T06:33:53;3.05;;;1.92;;
16845;SDS011;8539;53.188;8.696;2023-06-04T06:36:19;5.30;;;2.05;;
16845;SDS011;8539;53.188;8.696;2023-06-04T06:38:45;8.57;;;2.70;;
16845;SDS011;8539;53.188;8.696;2023-06-04T06:41:11;6.35;;;2.30;;
16845;SDS011;8539;53.188;8.696;2023-06-04T06:43:38;6.28;;;2.47;;
16845;SDS011;8539;53.188;8.696;2023-06-04T06:46:04;5.13;;;2.55;;
16845;SDS011;8539;53.188;8.696;2023-06-04T06:48:30;3.72;;;2.20;;
16845;SDS011;8539;53.188;8.696;2023-06-04T06:50:56;4.03;;;2.35;;
16845;SDS011;8539;53.188;8.696;2023-06-04T06:53:25;4.22;;;2.03;;
16845;SDS011;8539;53.188;8.696;2023-06-04T06:55:51;7.07;;;2.45;;
16845;SDS011;8539;53.188;8.696;2023-06-04T06:58:17;9.10;;;2.08;;
16845;SDS011;8539;53.188;8.696;2023-06-04T07:00:43;4.20;;;2.88;;
16845;SDS011;8539;53.188;8.696;2023-06-04T07:03:10;4.50;;;2.25;;
16845;SDS011;8539;53.188;8.696;2023-06-04T07:05:36;5.25;;;2.15;;
16845;SDS011;8539;53.188;8.696;2023-06-04T07:08:02;4.07;;;2.15;;
16845;SDS011;8539;53.188;8.696;2023-06-04T07:10:29;5.15;;;1.90;;
16845;SDS011;8539;53.188;8.696;2023-06-04T07:12:55;5.95;;;2.20;;
16845;SDS011;8539;53.188;8.696;2023-06-04T07:15:21;4.88;;;2.22;;
16845;SDS011;8539;53.188;8.696;2023-06-04T07:17:47;2.30;;;1.65;;
16845;SDS011;8539;53.188;8.696;2023-06-04T07:20:13;4.10;;;2.08;;
16845;SDS011;8539;53.188;8.696;2023-06-04T07:22:39;5.43;;;2.40;;
16845;SDS011;8539;53.188;8.696;2023-06-04T07:25:06;3.42;;;2.05;;
16845;SDS011;8539;53.188;8.696;2023-06-04T07:27:33;4.32;;;2.20;;
16845;SDS011;8539;53.188;8.696;2023-06-04T07:30:00;5.47;;;2.03;;
16845;SDS011;8539;53.188;8.696;2023-06-04T07:32:26;5.25;;;1.52;;
16845;SDS011;8539;53.188;8.696;2023-06-04T07:34:53;2.97;;;2.20;;
16845;SDS011;8539;53.188;8.696;2023-06-04T07:37:19;4.60;;;2.00;;
16845;SDS011;8539;53.188;8.696;2023-06-04T07:39:45;6.90;;;2.13;;
16845;SDS011;8539;53.188;8.696;2023-06-04T07:42:12;3.75;;;1.98;;
16845;SDS011;8539;53.188;8.696;2023-06-04T07:44:39;5.25;;;1.80;;
16845;SDS011;8539;53.188;8.696;2023-06-04T07:47:05;5.05;;;1.50;;
16845;SDS011;8539;53.188;8.696;2023-06-04T07:49:31;4.15;;;2.22;;
16845;SDS011;8539;53.188;8.696;2023-06-04T07:51:57;3.88;;;1.75;;
16845;SDS011;8539;53.188;8.696;2023-06-04T07:54:27;2.78;;;1.85;;
16845;SDS011;8539;53.188;8.696;2023-06-04T07:56:53;4.57;;;1.67;;
16845;SDS011;8539;53.188;8.696;2023-06-04T07:59:24;3.92;;;1.73;;
16845;SDS011;8539;53.188;8.696;2023-06-04T08:01:50;5.38;;;2.00;;
16845;SDS011;8539;53.188;8.696;2023-06-04T08:04:17;3.28;;;1.38;;
16845;SDS011;8539;53.188;8.696;2023-06-04T08:06:48;2.42;;;1.42;;
16845;SDS011;8539;53.188;8.696;2023-06-04T08:09:15;4.28;;;1.85;;
16845;SDS011;8539;53.188;8.696;2023-06-04T08:11:41;4.25;;;1.70;;
16845;SDS011;8539;53.188;8.696;2023-06-04T08:14:10;2.97;;;2.08;;
16845;SDS011;8539;53.188;8.696;2023-06-04T08:16:37;4.25;;;1.50;;
16845;SDS011;8539;53.188;8.696;2023-06-04T08:19:04;4.57;;;2.10;;
16845;SDS011;8539;53.188;8.696;2023-06-04T08:21:30;3.63;;;1.73;;
16845;SDS011;8539;53.188;8.696;2023-06-04T08:23:56;3.17;;;1.48;;
16845;SDS011;8539;53.188;8.696;2023-06-04T08:26:26;2.60;;;1.70;;
16845;SDS011;8539;53.188;8.696;2023-06-04T08:28:52;3.60;;;1.98;;
16845;SDS011;8539;53.188;8.696;2023-06-04T08:31:21;4.28;;;1.95;;
16845;SDS011;8539;53.188;8.696;2023-06-04T08:33:47;2.95;;;1.48;;
16845;SDS011;8539;53.188;8.696;2023-06-04T08:36:13;2.55;;;1.60;;
16845;SDS011;8539;53.188;8.696;2023-06-04T08:38:40;4.82;;;1.90;;
16845;SDS011;8539;53.188;8.696;2023-06-04T08:41:13;3.58;;;2.20;;
16845;SDS011;8539;53.188;8.696;2023-06-04T08:44:00;4.65;;;1.85;;
16845;SDS011;8539;53.188;8.696;2023-06-04T08:46:31;5.50;;;2.20;;
16845;SDS011;8539;53.188;8.696;2023-06-04T08:49:02;4.00;;;2.05;;
16845;SDS011;8539;53.188;8.696;2023-06-04T08:51:30;2.92;;;1.48;;
16845;SDS011;8539;53.188;8.696;2023-06-04T08:53:59;4.93;;;2.25;;
16845;SDS011;8539;53.188;8.696;2023-06-04T08:56:26;3.78;;;1.35;;
16845;SDS011;8539;53.188;8.696;2023-06-04T08:58:55;4.88;;;1.73;;
16845;SDS011;8539;53.188;8.696;2023-06-04T09:01:25;5.30;;;1.80;;
16845;SDS011;8539;53.188;8.696;2023-06-04T09:03:51;3.60;;;1.90;;
16845;SDS011;8539;53.188;8.696;2023-06-04T09:06:17;5.40;;;1.45;;
16845;SDS011;8539;53.188;8.696;2023-06-04T09:08:44;6.22;;;1.88;;
16845;SDS011;8539;53.188;8.696;2023-06-04T09:11:11;2.15;;;1.52;;
16845;SDS011;8539;53.188;8.696;2023-06-04T09:13:41;3.15;;;1.70;;
16845;SDS011;8539;53.188;8.696;2023-06-04T09:16:10;1.92;;;1.30;;
16845;SDS011;8539;53.188;8.696;2023-06-04T09:18:36;3.72;;;1.52;;
16845;SDS011;8539;53.188;8.696;2023-06-04T09:21:05;3.55;;;2.08;;
16845;SDS011;8539;53.188;8.696;2023-06-04T09:23:45;4.72;;;2.25;;
16845;SDS011;8539;53.188;8.696;2023-06-04T09:26:12;2.28;;;1.40;;
16845;SDS011;8539;53.188;8.696;2023-06-04T09:28:42;6.60;;;1.92;;
16845;SDS011;8539;53.188;8.696;2023-06-04T09:31:09;4.55;;;1.52;;
16845;SDS011;8539;53.188;8.696;2023-06-04T09:33:47;2.95;;;1.35;;
16845;SDS011;8539;53.188;8.696;2023-06-04T09:36:16;5.35;;;1.67;;
16845;SDS011;8539;53.188;8.696;2023-06-04T09:38:42;4.05;;;1.38;;
16845;SDS011;8539;53.188;8.696;2023-06-04T09:41:12;2.45;;;1.30;;
16845;SDS011;8539;53.188;8.696;2023-06-04T09:43:39;3.53;;;1.38;;
16845;SDS011;8539;53.188;8.696;2023-06-04T09:46:09;3.35;;;1.40;;
16845;SDS011;8539;53.188;8.696;2023-06-04T09:48:40;3.15;;;1.40;;
16845;SDS011;8539;53.188;8.696;2023-06-04T09:51:10;4.38;;;1.20;;
16845;SDS011;8539;53.188;8.696;2023-06-04T09:53:37;2.10;;;1.40;;
16845;SDS011;8539;53.188;8.696;2023-06-04T09:56:04;2.67;;;1.40;;
16845;SDS011;8539;53.188;8.696;2023-06-04T09:58:37;2.00;;;1.33;;
16845;SDS011;8539;53.188;8.696;2023-06-04T10:01:04;3.17;;;1.70;;
16845;SDS011;8539;53.188;8.696;2023-06-04T10:03:35;3.33;;;1.38;;
16845;SDS011;8539;53.188;8.696;2023-06-04T10:06:03;3.72;;;1.73;;
16845;SDS011;8539;53.188;8.696;2023-06-04T10:08:31;5.30;;;1.95;;
16845;SDS011;8539;53.188;8.696;2023-06-04T10:10:59;3.38;;;1.75;;
16845;SDS011;8539;53.188;8.696;2023-06-04T10:13:29;2.97;;;1.80;;
16845;SDS011;8539;53.188;8.696;2023-06-04T10:16:00;4.32;;;1.83;;
16845;SDS011;8539;53.188;8.696;2023-06-04T10:18:27;3.70;;;1.58;;
16845;SDS011;8539;53.188;8.696;2023-06-04T10:20:56;3.35;;;1.33;;
16845;SDS011;8539;53.188;8.696;2023-06-04T10:23:23;2.95;;;1.60;;
16845;SDS011;8539;53.188;8.696;2023-06-04T10:25:50;3.58;;;2.10;;
16845;SDS011;8539;53.188;8.696;2023-06-04T10:28:20;5.55;;;1.52;;
16845;SDS011;8539;53.188;8.696;2023-06-04T10:30:48;2.10;;;1.30;;
16845;SDS011;8539;53.188;8.696;2023-06-04T10:33:21;2.42;;;1.25;;
16845;SDS011;8539;53.188;8.696;2023-06-04T10:35:50;2.42;;;1.55;;
16845;SDS011;8539;53.188;8.696;2023-06-04T10:38:18;5.78;;;1.58;;
16845;SDS011;8539;53.188;8.696;2023-06-04T10:40:46;4.35;;;1.52;;
16845;SDS011;8539;53.188;8.696;2023-06-04T10:43:13;6.35;;;1.80;;
16845;SDS011;8539;53.188;8.696;2023-06-04T10:45:41;3.38;;;1.17;;
16845;SDS011;8539;53.188;8.696;2023-06-04T10:48:08;4.03;;;1.27;;
16845;SDS011;8539;53.188;8.696;2023-06-04T10:50:52;3.17;;;1.33;;
16845;SDS011;8539;53.188;8.696;2023-06-04T10:53:18;2.47;;;1.40;;
16845;SDS011;8539;53.188;8.696;2023-06-04T10:55:46;2.88;;;1.35;;
16845;SDS011;8539;53.188;8.696;2023-06-04T10:58:13;2.78;;;1.25;;
16845;SDS011;8539;53.188;8.696;2023-06-04T11:00:43;5.20;;;1.83;;
16845;SDS011;8539;53.188;8.696;2023-06-04T11:03:11;3.38;;;1.50;;
16845;SDS011;8539;53.188;8.696;2023-06-04T11:05:39;2.47;;;1.20;;
16845;SDS011;8539;53.188;8.696;2023-06-04T11:08:06;2.15;;;1.40;;
16845;SDS011;8539;53.188;8.696;2023-06-04T11:10:33;2.00;;;1.45;;
16845;SDS011;8539;53.188;8.696;2023-06-04T11:13:01;5.63;;;1.38;;
16845;SDS011;8539;53.188;8.696;2023-06-04T11:18:08;4.90;;;1.50;;
16845;SDS011;8539;53.188;8.696;2023-06-04T11:20:39;4.15;;;2.03;;
16845;SDS011;8539;53.188;8.696;2023-06-04T11:23:05;5.25;;;2.50;;
16845;SDS011;8539;53.188;8.696;2023-06-04T11:25:31;3.42;;;1.92;;
16845;SDS011;8539;53.188;8.696;2023-06-04T11:27:59;7.05;;;2.00;;
16845;SDS011;8539;53.188;8.696;2023-06-04T11:30:27;5.25;;;1.98;;
16845;SDS011;8539;53.188;8.696;2023-06-04T11:33:03;4.88;;;1.95;;
16845;SDS011;8539;53.188;8.696;2023-06-04T11:35:30;3.45;;;1.52;;
16845;SDS011;8539;53.188;8.696;2023-06-04T11:38:05;5.20;;;1.95;;
16845;SDS011;8539;53.188;8.696;2023-06-04T11:40:31;2.58;;;1.38;;
16845;SDS011;8539;53.188;8.696;2023-06-04T11:42:57;4.93;;;1.90;;
16845;SDS011;8539;53.188;8.696;2023-06-04T11:45:23;4.82;;;1.88;;
16845;SDS011;8539;53.188;8.696;2023-06-04T11:47:52;4.28;;;1.75;;
16845;SDS011;8539;53.188;8.696;2023-06-04T11:50:19;3.90;;;2.20;;
16845;SDS011;8539;53.188;8.696;2023-06-04T11:52:47;3.00;;;1.73;;
16845;SDS011;8539;53.188;8.696;2023-06-04T11:55:13;3.10;;;1.92;;
16845;SDS011;8539;53.188;8.696;2023-06-04T11:57:40;5.85;;;1.83;;
16845;SDS011;8539;53.188;8.696;2023-06-04T12:00:07;3.30;;;1.73;;
16845;SDS011;8539;53.188;8.696;2023-06-04T12:02:39;4.30;;;1.73;;
16845;SDS011;8539;53.188;8.696;2023-06-04T12:05:21;5.18;;;2.17;;
16845;SDS011;8539;53.188;8.696;2023-06-04T12:07:50;2.72;;;2.15;;
16845;SDS011;8539;53.188;8.696;2023-06-04T12:10:17;4.88;;;1.80;;
16845;SDS011;8539;53.188;8.696;2023-06-04T12:12:44;6.90;;;2.00;;
16845;SDS011;8539;53.188;8.696;2023-06-04T12:15:10;6.22;;;2.22;;
16845;SDS011;8539;53.188;8.696;2023-06-04T12:17:48;4.82;;;1.80;;
16845;SDS011;8539;53.188;8.696;2023-06-04T12:20:19;4.75;;;2.45;;
16845;SDS011;8539;53.188;8.696;2023-06-04T12:23:03;5.60;;;1.75;;
16845;SDS011;8539;53.188;8.696;2023-06-04T12:25:31;5.57;;;2.60;;
16845;SDS011;8539;53.188;8.696;2023-06-04T12:27:58;3.05;;;1.80;;
16845;SDS011;8539;53.188;8.696;2023-06-04T12:30:34;5.13;;;1.83;;
16845;SDS011;8539;53.188;8.696;2023-06-04T12:33:04;4.93;;;1.98;;
16845;SDS011;8539;53.188;8.696;2023-06-04T12:35:30;7.53;;;2.70;;
16845;SDS011;8539;53.188;8.696;2023-06-04T12:37:56;4.10;;;2.08;;
16845;SDS011;8539;53.188;8.696;2023-06-04T12:40:22;2.90;;;1.95;;
16845;SDS011;8539;53.188;8.696;2023-06-04T12:42:52;6.15;;;2.55;;
16845;SDS011;8539;53.188;8.696;2023-06-04T12:45:18;7.30;;;2.42;;
16845;SDS011;8539;53.188;8.696;2023-06-04T12:47:44;4.10;;;1.85;;
16845;SDS011;8539;53.188;8.696;2023-06-04T12:50:11;4.70;;;1.98;;
16845;SDS011;8539;53.188;8.696;2023-06-04T12:52:37;5.22;;;1.73;;
16845;SDS011;8539;53.188;8.696;2023-06-04T12:55:04;4.32;;;2.05;;
16845;SDS011;8539;53.188;8.696;2023-06-04T12:57:31;4.13;;;2.47;;
16845;SDS011;8539;53.188;8.696;2023-06-04T12:59:57;4.57;;;2.03;;
16845;SDS011;8539;53.188;8.696;2023-06-04T13:02:23;4.35;;;1.83;;
16845;SDS011;8539;53.188;8.696;2023-06-04T13:04:50;5.38;;;1.88;;
16845;SDS011;8539;53.188;8.696;2023-06-04T13:07:20;6.68;;;1.98;;
16845;SDS011;8539;53.188;8.696;2023-06-04T13:09:45;2.90;;;1.85;;
16845;SDS011;8539;53.188;8.696;2023-06-04T13:12:15;4.07;;;1.80;;
16845;SDS011;8539;53.188;8.696;2023-06-04T13:14:41;4.65;;;1.83;;
16845;SDS011;8539;53.188;8.696;2023-06-04T13:17:07;5.00;;;2.08;;
16845;SDS011;8539;53.188;8.696;2023-06-04T13:19:34;4.25;;;1.70;;
16845;SDS011;8539;53.188;8.696;2023-06-04T13:22:01;4.65;;;1.85;;
16845;SDS011;8539;53.188;8.696;2023-06-04T13:24:27;2.92;;;1.70;;
16845;SDS011;8539;53.188;8.696;2023-06-04T13:26:53;6.30;;;1.83;;
16845;SDS011;8539;53.188;8.696;2023-06-04T13:29:21;2.53;;;1.58;;
16845;SDS011;8539;53.188;8.696;2023-06-04T13:31:48;5.50;;;1.38;;
16845;SDS011;8539;53.188;8.696;2023-06-04T13:34:15;3.95;;;1.85;;
16845;SDS011;8539;53.188;8.696;2023-06-04T13:36:41;3.50;;;1.80;;
16845;SDS011;8539;53.188;8.696;2023-06-04T13:39:07;3.33;;;1.50;;
16845;SDS011;8539;53.188;8.696;2023-06-04T13:41:33;4.07;;;1.98;;
16845;SDS011;8539;53.188;8.696;2023-06-04T13:43:59;4.00;;;1.92;;
16845;SDS011;8539;53.188;8.696;2023-06-04T13:46:25;4.25;;;1.70;;
16845;SDS011;8539;53.188;8.696;2023-06-04T13:48:51;3.58;;;1.48;;
16845;SDS011;8539;53.188;8.696;2023-06-04T13:51:17;3.10;;;1.73;;
16845;SDS011;8539;53.188;8.696;2023-06-04T13:53:43;3.80;;;1.63;;
16845;SDS011;8539;53.188;8.696;2023-06-04T13:56:09;4.88;;;2.03;;
16845;SDS011;8539;53.188;8.696;2023-06-04T13:58:35;2.00;;;1.65;;
16845;SDS011;8539;53.188;8.696;2023-06-04T14:01:01;2.63;;;1.98;;
16845;SDS011;8539;53.188;8.696;2023-06-04T14:03:27;2.90;;;1.42;;
16845;SDS011;8539;53.188;8.696;2023-06-04T14:05:53;1.95;;;1.50;;
16845;SDS011;8539;53.188;8.696;2023-06-04T14:08:20;4.05;;;1.90;;
16845;SDS011;8539;53.188;8.696;2023-06-04T14:10:46;8.30;;;2.10;;
16845;SDS011;8539;53.188;8.696;2023-06-04T14:13:12;3.03;;;1.67;;
16845;SDS011;8539;53.188;8.696;2023-06-04T14:15:38;2.78;;;1.60;;
16845;SDS011;8539;53.188;8.696;2023-06-04T14:18:04;6.07;;;2.00;;
16845;SDS011;8539;53.188;8.696;2023-06-04T14:20:31;7.07;;;2.22;;
16845;SDS011;8539;53.188;8.696;2023-06-04T14:22:57;7.00;;;2.25;;
16845;SDS011;8539;53.188;8.696;2023-06-04T14:25:23;4.72;;;2.05;;
16845;SDS011;8539;53.188;8.696;2023-06-04T14:27:49;3.08;;;1.73;;
16845;SDS011;8539;53.188;8.696;2023-06-04T14:30:16;6.18;;;1.73;;
16845;SDS011;8539;53.188;8.696;2023-06-04T14:32:42;5.57;;;2.47;;
16845;SDS011;8539;53.188;8.696;2023-06-04T14:35:09;4.32;;;1.70;;
16845;SDS011;8539;53.188;8.696;2023-06-04T14:37:35;4.90;;;1.50;;
16845;SDS011;8539;53.188;8.696;2023-06-04T14:40:01;5.25;;;1.70;;
16845;SDS011;8539;53.188;8.696;2023-06-04T14:42:27;2.25;;;1.55;;
16845;SDS011;8539;53.188;8.696;2023-06-04T14:44:53;4.25;;;1.92;;
16845;SDS011;8539;53.188;8.696;2023-06-04T14:47:20;2.55;;;1.67;;
16845;SDS011;8539;53.188;8.696;2023-06-04T14:49:47;3.28;;;1.65;;
16845;SDS011;8539;53.188;8.696;2023-06-04T14:52:13;2.10;;;1.30;;
16845;SDS011;8539;53.188;8.696;2023-06-04T14:54:40;3.85;;;1.70;;
16845;SDS011;8539;53.188;8.696;2023-06-04T14:57:06;4.80;;;1.85;;
16845;SDS011;8539;53.188;8.696;2023-06-04T14:59:32;6.60;;;1.52;;
16845;SDS011;8539;53.188;8.696;2023-06-04T15:01:59;5.05;;;1.85;;
16845;SDS011;8539;53.188;8.696;2023-06-04T15:04:25;7.47;;;2.10;;
16845;SDS011;8539;53.188;8.696;2023-06-04T15:06:52;2.15;;;1.65;;
16845;SDS011;8539;53.188;8.696;2023-06-04T15:09:18;2.88;;;1.58;;
16845;SDS011;8539;53.188;8.696;2023-06-04T15:11:44;3.22;;;1.75;;
16845;SDS011;8539;53.188;8.696;2023-06-04T15:14:10;2.58;;;1.40;;